sensor_id;sensor_type;location;lat;lon;timestamp;temperature;humidity
23618;DHT22;18207;32.078;34.818;2023-07-24T00:00:00;33.00;52.10
23618;DHT22;18207;32.078;34.818;2023-07-24T00:02:31;33.00;52.10
23618;DHT22;18207;32.078;34.818;2023-07-24T00:05:03;33.00;52.10
23618;DHT22;18207;32.078;34.818;2023-07-24T00:07:34;33.00;52.20
23618;DHT22;18207;32.078;34.818;2023-07-24T00:10:05;33.00;52.20
23618;DHT22;18207;32.078;34.818;2023-07-24T00:12:35;33.00;52.20
23618;DHT22;18207;32.078;34.818;2023-07-24T00:15:07;32.90;52.20
23618;DHT22;18207;32.078;34.818;2023-07-24T00:17:37;32.90;52.20
23618;DHT22;18207;32.078;34.818;2023-07-24T00:20:11;32.90;52.20
23618;DHT22;18207;32.078;34.818;2023-07-24T00:22:42;32.90;52.20
23618;DHT22;18207;32.078;34.818;2023-07-24T00:25:12;32.90;52.20
23618;DHT22;18207;32.078;34.818;2023-07-24T00:27:43;32.90;52.30
23618;DHT22;18207;32.078;34.818;2023-07-24T00:30:13;32.90;52.30
23618;DHT22;18207;32.078;34.818;2023-07-24T00:32:44;32.90;52.30
23618;DHT22;18207;32.078;34.818;2023-07-24T00:35:16;32.90;52.30
23618;DHT22;18207;32.078;34.818;2023-07-24T00:37:47;33.00;52.50
23618;DHT22;18207;32.078;34.818;2023-07-24T00:40:17;32.90;52.40
23618;DHT22;18207;32.078;34.818;2023-07-24T00:42:48;32.90;52.40
23618;DHT22;18207;32.078;34.818;2023-07-24T00:45:18;32.90;52.50
23618;DHT22;18207;32.078;34.818;2023-07-24T00:47:51;32.90;52.50
23618;DHT22;18207;32.078;34.818;2023-07-24T00:50:23;32.90;52.50
23618;DHT22;18207;32.078;34.818;2023-07-24T00:52:55;32.80;52.40
23618;DHT22;18207;32.078;34.818;2023-07-24T00:55:27;32.80;52.40
23618;DHT22;18207;32.078;34.818;2023-07-24T00:57:58;32.80;52.40
23618;DHT22;18207;32.078;34.818;2023-07-24T01:00:29;32.80;52.50
23618;DHT22;18207;32.078;34.818;2023-07-24T01:03:00;32.80;52.60
23618;DHT22;18207;32.078;34.818;2023-07-24T01:05:32;32.80;52.60
23618;DHT22;18207;32.078;34.818;2023-07-24T01:08:03;32.80;52.60
23618;DHT22;18207;32.078;34.818;2023-07-24T01:10:33;32.80;52.60
23618;DHT22;18207;32.078;34.818;2023-07-24T01:13:09;32.70;52.60
23618;DHT22;18207;32.078;34.818;2023-07-24T01:15:48;32.80;52.80
23618;DHT22;18207;32.078;34.818;2023-07-24T01:18:23;32.70;52.70
23618;DHT22;18207;32.078;34.818;2023-07-24T01:20:57;32.70;52.70
23618;DHT22;18207;32.078;34.818;2023-07-24T01:23:44;32.70;52.80
23618;DHT22;18207;32.078;34.818;2023-07-24T01:26:32;32.70;52.80
23618;DHT22;18207;32.078;34.818;2023-07-24T01:29:02;32.70;52.80
23618;DHT22;18207;32.078;34.818;2023-07-24T01:31:33;32.70;52.80
23618;DHT22;18207;32.078;34.818;2023-07-24T01:34:03;32.70;52.80
23618;DHT22;18207;32.078;34.818;2023-07-24T01:36:33;32.70;52.80
23618;DHT22;18207;32.078;34.818;2023-07-24T01:39:04;32.70;52.90
23618;DHT22;18207;32.078;34.818;2023-07-24T01:41:37;32.70;52.90
23618;DHT22;18207;32.078;34.818;2023-07-24T01:44:08;32.60;52.80
23618;DHT22;18207;32.078;34.818;2023-07-24T01:46:40;32.60;52.80
23618;DHT22;18207;32.078;34.818;2023-07-24T01:49:10;32.60;52.90
23618;DHT22;18207;32.078;34.818;2023-07-24T01:51:40;32.60;52.90
23618;DHT22;18207;32.078;34.818;2023-07-24T01:54:11;32.60;52.90
23618;DHT22;18207;32.078;34.818;2023-07-24T01:56:43;32.60;52.90
23618;DHT22;18207;32.078;34.818;2023-07-24T01:59:13;32.60;53.00
23618;DHT22;18207;32.078;34.818;2023-07-24T02:01:44;32.60;53.00
23618;DHT22;18207;32.078;34.818;2023-07-24T02:04:14;32.60;53.00
23618;DHT22;18207;32.078;34.818;2023-07-24T02:06:44;32.60;53.00
23618;DHT22;18207;32.078;34.818;2023-07-24T02:09:15;32.60;53.00
23618;DHT22;18207;32.078;34.818;2023-07-24T02:11:47;32.60;53.00
23618;DHT22;18207;32.078;34.818;2023-07-24T02:14:18;32.50;52.90
23618;DHT22;18207;32.078;34.818;2023-07-24T02:16:50;32.50;52.90
23618;DHT22;18207;32.078;34.818;2023-07-24T02:19:20;32.50;52.90
23618;DHT22;18207;32.078;34.818;2023-07-24T02:21:50;32.50;52.90
23618;DHT22;18207;32.078;34.818;2023-07-24T02:24:20;32.50;52.90
23618;DHT22;18207;32.078;34.818;2023-07-24T02:26:52;32.50;52.90
23618;DHT22;18207;32.078;34.818;2023-07-24T02:29:23;32.50;53.00
23618;DHT22;18207;32.078;34.818;2023-07-24T02:31:54;32.40;52.90
23618;DHT22;18207;32.078;34.818;2023-07-24T02:34:24;32.40;53.00
23618;DHT22;18207;32.078;34.818;2023-07-24T02:36:55;32.40;53.00
23618;DHT22;18207;32.078;34.818;2023-07-24T02:39:26;32.40;53.00
23618;DHT22;18207;32.078;34.818;2023-07-24T02:41:58;32.30;53.00
23618;DHT22;18207;32.078;34.818;2023-07-24T02:44:28;32.30;53.00
23618;DHT22;18207;32.078;34.818;2023-07-24T02:46:58;32.30;53.10
23618;DHT22;18207;32.078;34.818;2023-07-24T02:49:28;32.30;53.10
23618;DHT22;18207;32.078;34.818;2023-07-24T02:51:59;32.30;53.10
23618;DHT22;18207;32.078;34.818;2023-07-24T02:54:29;32.20;53.00
23618;DHT22;18207;32.078;34.818;2023-07-24T02:57:01;32.20;53.00
23618;DHT22;18207;32.078;34.818;2023-07-24T02:59:32;32.20;53.10
23618;DHT22;18207;32.078;34.818;2023-07-24T03:02:03;32.20;53.10
23618;DHT22;18207;32.078;34.818;2023-07-24T03:04:33;32.20;53.10
23618;DHT22;18207;32.078;34.818;2023-07-24T03:07:04;32.20;53.20
23618;DHT22;18207;32.078;34.818;2023-07-24T03:09:34;32.20;53.20
23618;DHT22;18207;32.078;34.818;2023-07-24T03:12:06;32.10;53.10
23618;DHT22;18207;32.078;34.818;2023-07-24T03:14:37;32.10;53.30
23618;DHT22;18207;32.078;34.818;2023-07-24T03:17:08;32.10;53.30
23618;DHT22;18207;32.078;34.818;2023-07-24T03:19:38;32.10;53.40
23618;DHT22;18207;32.078;34.818;2023-07-24T03:22:09;32.10;53.50
23618;DHT22;18207;32.078;34.818;2023-07-24T03:24:39;32.10;53.50
23618;DHT22;18207;32.078;34.818;2023-07-24T03:27:11;32.10;53.50
23618;DHT22;18207;32.078;34.818;2023-07-24T03:29:42;32.10;53.50
23618;DHT22;18207;32.078;34.818;2023-07-24T03:32:12;32.10;53.50
23618;DHT22;18207;32.078;34.818;2023-07-24T03:34:42;32.10;53.50
23618;DHT22;18207;32.078;34.818;2023-07-24T03:37:12;32.10;53.50
23618;DHT22;18207;32.078;34.818;2023-07-24T03:39:43;32.10;53.50
23618;DHT22;18207;32.078;34.818;2023-07-24T03:42:25;32.10;53.50
23618;DHT22;18207;32.078;34.818;2023-07-24T03:44:57;32.10;53.50
23618;DHT22;18207;32.078;34.818;2023-07-24T03:47:27;32.10;53.50
23618;DHT22;18207;32.078;34.818;2023-07-24T03:49:57;32.10;53.50
23618;DHT22;18207;32.078;34.818;2023-07-24T03:52:28;32.10;54.10
23618;DHT22;18207;32.078;34.818;2023-07-24T03:54:58;32.10;53.50
23618;DHT22;18207;32.078;34.818;2023-07-24T03:57:30;32.10;53.50
23618;DHT22;18207;32.078;34.818;2023-07-24T04:00:00;32.10;53.60
23618;DHT22;18207;32.078;34.818;2023-07-24T04:02:31;32.10;53.70
23618;DHT22;18207;32.078;34.818;2023-07-24T04:05:01;32.10;53.60
23618;DHT22;18207;32.078;34.818;2023-07-24T04:07:32;32.10;53.60
23618;DHT22;18207;32.078;34.818;2023-07-24T04:10:02;32.10;53.50
23618;DHT22;18207;32.078;34.818;2023-07-24T04:12:35;32.10;53.60
23618;DHT22;18207;32.078;34.818;2023-07-24T04:15:07;32.10;53.60
23618;DHT22;18207;32.078;34.818;2023-07-24T04:17:37;32.20;53.70
23618;DHT22;18207;32.078;34.818;2023-07-24T04:20:09;32.20;53.70
23618;DHT22;18207;32.078;34.818;2023-07-24T04:22:39;32.20;53.70
23618;DHT22;18207;32.078;34.818;2023-07-24T04:25:10;32.20;53.70
23618;DHT22;18207;32.078;34.818;2023-07-24T04:27:42;32.20;53.70
23618;DHT22;18207;32.078;34.818;2023-07-24T04:30:12;32.30;53.80
23618;DHT22;18207;32.078;34.818;2023-07-24T04:32:43;32.30;53.80
23618;DHT22;18207;32.078;34.818;2023-07-24T04:35:13;32.30;53.70
23618;DHT22;18207;32.078;34.818;2023-07-24T04:37:44;32.30;53.70
23618;DHT22;18207;32.078;34.818;2023-07-24T04:40:14;32.30;53.70
23618;DHT22;18207;32.078;34.818;2023-07-24T04:42:46;32.40;53.80
23618;DHT22;18207;32.078;34.818;2023-07-24T04:45:17;32.40;53.80
23618;DHT22;18207;32.078;34.818;2023-07-24T04:47:50;32.50;53.90
23618;DHT22;18207;32.078;34.818;2023-07-24T04:50:20;32.50;53.80
23618;DHT22;18207;32.078;34.818;2023-07-24T04:52:49;32.50;53.80
23618;DHT22;18207;32.078;34.818;2023-07-24T04:55:19;32.50;53.80
23618;DHT22;18207;32.078;34.818;2023-07-24T04:57:51;32.60;53.90
23618;DHT22;18207;32.078;34.818;2023-07-24T05:00:22;32.60;53.80
23618;DHT22;18207;32.078;34.818;2023-07-24T05:02:52;32.70;53.90
23618;DHT22;18207;32.078;34.818;2023-07-24T05:05:22;32.70;53.80
23618;DHT22;18207;32.078;34.818;2023-07-24T05:07:53;32.80;53.80
23618;DHT22;18207;32.078;34.818;2023-07-24T05:10:23;32.80;53.70
23618;DHT22;18207;32.078;34.818;2023-07-24T05:12:55;32.80;53.70
23618;DHT22;18207;32.078;34.818;2023-07-24T05:15:26;32.90;53.70
23618;DHT22;18207;32.078;34.818;2023-07-24T05:17:56;32.90;53.70
23618;DHT22;18207;32.078;34.818;2023-07-24T05:20:26;32.90;53.60
23618;DHT22;18207;32.078;34.818;2023-07-24T05:22:56;33.00;53.70
23618;DHT22;18207;32.078;34.818;2023-07-24T05:25:27;33.00;53.60
23618;DHT22;18207;32.078;34.818;2023-07-24T05:27:58;33.00;53.60
23618;DHT22;18207;32.078;34.818;2023-07-24T05:30:28;33.10;53.60
23618;DHT22;18207;32.078;34.818;2023-07-24T05:32:58;33.10;53.50
23618;DHT22;18207;32.078;34.818;2023-07-24T05:35:29;33.20;53.50
23618;DHT22;18207;32.078;34.818;2023-07-24T05:38:00;33.20;53.40
23618;DHT22;18207;32.078;34.818;2023-07-24T05:40:30;33.20;53.40
23618;DHT22;18207;32.078;34.818;2023-07-24T05:43:02;33.30;53.40
23618;DHT22;18207;32.078;34.818;2023-07-24T05:45:32;33.30;53.30
23618;DHT22;18207;32.078;34.818;2023-07-24T05:48:03;33.40;53.30
23618;DHT22;18207;32.078;34.818;2023-07-24T05:50:34;33.40;53.20
23618;DHT22;18207;32.078;34.818;2023-07-24T05:53:03;33.40;53.10
23618;DHT22;18207;32.078;34.818;2023-07-24T05:55:34;33.40;53.10
23618;DHT22;18207;32.078;34.818;2023-07-24T05:58:05;33.40;53.00
23618;DHT22;18207;32.078;34.818;2023-07-24T06:00:36;33.50;53.00
23618;DHT22;18207;32.078;34.818;2023-07-24T06:03:06;33.50;53.00
23618;DHT22;18207;32.078;34.818;2023-07-24T06:05:37;33.60;52.90
23618;DHT22;18207;32.078;34.818;2023-07-24T06:08:06;33.60;52.80
23618;DHT22;18207;32.078;34.818;2023-07-24T06:10:38;33.70;52.80
23618;DHT22;18207;32.078;34.818;2023-07-24T06:13:11;33.70;52.80
23618;DHT22;18207;32.078;34.818;2023-07-24T06:15:41;33.70;52.70
23618;DHT22;18207;32.078;34.818;2023-07-24T06:18:11;33.70;52.60
23618;DHT22;18207;32.078;34.818;2023-07-24T06:20:41;33.80;52.70
23618;DHT22;18207;32.078;34.818;2023-07-24T06:23:11;33.80;52.50
23618;DHT22;18207;32.078;34.818;2023-07-24T06:25:42;33.90;52.40
23618;DHT22;18207;32.078;34.818;2023-07-24T06:28:14;33.90;52.50
23618;DHT22;18207;32.078;34.818;2023-07-24T06:30:45;34.00;52.50
23618;DHT22;18207;32.078;34.818;2023-07-24T06:33:16;34.00;52.50
23618;DHT22;18207;32.078;34.818;2023-07-24T06:35:47;34.10;53.10
23618;DHT22;18207;32.078;34.818;2023-07-24T06:38:17;34.20;52.30
23618;DHT22;18207;32.078;34.818;2023-07-24T06:40:49;34.20;52.30
23618;DHT22;18207;32.078;34.818;2023-07-24T06:43:21;34.20;52.20
23618;DHT22;18207;32.078;34.818;2023-07-24T06:45:52;34.30;52.20
23618;DHT22;18207;32.078;34.818;2023-07-24T06:48:22;34.40;52.10
23618;DHT22;18207;32.078;34.818;2023-07-24T06:50:52;34.40;52.00
23618;DHT22;18207;32.078;34.818;2023-07-24T06:53:23;34.50;52.00
23618;DHT22;18207;32.078;34.818;2023-07-24T06:55:53;34.50;51.80
23618;DHT22;18207;32.078;34.818;2023-07-24T06:58:25;34.60;51.80
23618;DHT22;18207;32.078;34.818;2023-07-24T07:00:55;34.60;51.60
23618;DHT22;18207;32.078;34.818;2023-07-24T07:03:25;34.70;51.60
23618;DHT22;18207;32.078;34.818;2023-07-24T07:05:59;34.70;51.50
23618;DHT22;18207;32.078;34.818;2023-07-24T07:08:29;34.80;51.40
23618;DHT22;18207;32.078;34.818;2023-07-24T07:11:00;34.90;51.30
23618;DHT22;18207;32.078;34.818;2023-07-24T07:13:33;34.90;51.10
23618;DHT22;18207;32.078;34.818;2023-07-24T07:16:03;35.00;51.00
23618;DHT22;18207;32.078;34.818;2023-07-24T07:18:34;35.00;50.90
23618;DHT22;18207;32.078;34.818;2023-07-24T07:21:05;35.10;50.70
23618;DHT22;18207;32.078;34.818;2023-07-24T07:23:34;35.10;50.50
23618;DHT22;18207;32.078;34.818;2023-07-24T07:26:04;35.10;50.50
23618;DHT22;18207;32.078;34.818;2023-07-24T07:28:37;35.20;50.30
23618;DHT22;18207;32.078;34.818;2023-07-24T07:31:07;35.20;50.00
23618;DHT22;18207;32.078;34.818;2023-07-24T07:33:37;35.30;50.00
23618;DHT22;18207;32.078;34.818;2023-07-24T07:36:08;35.30;50.00
23618;DHT22;18207;32.078;34.818;2023-07-24T07:38:38;35.40;50.00
23618;DHT22;18207;32.078;34.818;2023-07-24T07:41:09;35.40;49.80
23618;DHT22;18207;32.078;34.818;2023-07-24T07:43:41;35.50;49.80
23618;DHT22;18207;32.078;34.818;2023-07-24T07:46:12;35.50;49.70
23618;DHT22;18207;32.078;34.818;2023-07-24T07:48:41;35.60;49.70
23618;DHT22;18207;32.078;34.818;2023-07-24T07:51:14;35.60;49.70
23618;DHT22;18207;32.078;34.818;2023-07-24T07:53:44;35.70;49.90
23618;DHT22;18207;32.078;34.818;2023-07-24T07:56:14;35.70;49.90
23618;DHT22;18207;32.078;34.818;2023-07-24T07:58:46;35.80;49.70
23618;DHT22;18207;32.078;34.818;2023-07-24T08:01:16;35.80;49.80
23618;DHT22;18207;32.078;34.818;2023-07-24T08:03:47;35.80;49.80
23618;DHT22;18207;32.078;34.818;2023-07-24T08:06:18;35.90;49.70
23618;DHT22;18207;32.078;34.818;2023-07-24T08:08:49;35.90;49.70
23618;DHT22;18207;32.078;34.818;2023-07-24T08:11:19;36.00;49.60
23618;DHT22;18207;32.078;34.818;2023-07-24T08:13:52;36.00;49.50
23618;DHT22;18207;32.078;34.818;2023-07-24T08:16:22;36.10;49.50
23618;DHT22;18207;32.078;34.818;2023-07-24T08:18:53;36.10;49.40
23618;DHT22;18207;32.078;34.818;2023-07-24T08:21:24;36.20;49.40
23618;DHT22;18207;32.078;34.818;2023-07-24T08:23:55;36.20;49.30
23618;DHT22;18207;32.078;34.818;2023-07-24T08:26:27;36.30;49.20
23618;DHT22;18207;32.078;34.818;2023-07-24T08:29:00;36.30;49.10
23618;DHT22;18207;32.078;34.818;2023-07-24T08:31:31;36.40;49.00
23618;DHT22;18207;32.078;34.818;2023-07-24T08:34:01;36.40;48.90
23618;DHT22;18207;32.078;34.818;2023-07-24T08:36:32;36.40;48.70
23618;DHT22;18207;32.078;34.818;2023-07-24T08:39:02;36.50;48.60
23618;DHT22;18207;32.078;34.818;2023-07-24T08:41:32;36.50;48.50
23618;DHT22;18207;32.078;34.818;2023-07-24T08:44:07;36.50;48.20
23618;DHT22;18207;32.078;34.818;2023-07-24T08:46:39;36.60;48.20
23618;DHT22;18207;32.078;34.818;2023-07-24T08:49:13;36.60;48.20
23618;DHT22;18207;32.078;34.818;2023-07-24T08:51:44;36.60;48.20
23618;DHT22;18207;32.078;34.818;2023-07-24T08:54:16;36.70;48.20
23618;DHT22;18207;32.078;34.818;2023-07-24T08:56:48;36.70;47.90
23618;DHT22;18207;32.078;34.818;2023-07-24T08:59:21;36.80;47.60
23618;DHT22;18207;32.078;34.818;2023-07-24T09:01:51;36.80;47.70
23618;DHT22;18207;32.078;34.818;2023-07-24T09:04:22;36.80;47.70
23618;DHT22;18207;32.078;34.818;2023-07-24T09:06:54;36.80;47.60
23618;DHT22;18207;32.078;34.818;2023-07-24T09:09:29;36.80;47.60
23618;DHT22;18207;32.078;34.818;2023-07-24T09:12:00;36.90;47.60
23618;DHT22;18207;32.078;34.818;2023-07-24T09:14:33;36.80;47.50
23618;DHT22;18207;32.078;34.818;2023-07-24T09:17:04;36.90;47.40
23618;DHT22;18207;32.078;34.818;2023-07-24T09:19:36;36.90;47.40
23618;DHT22;18207;32.078;34.818;2023-07-24T09:22:10;36.90;47.30
23618;DHT22;18207;32.078;34.818;2023-07-24T09:24:51;36.90;47.50
23618;DHT22;18207;32.078;34.818;2023-07-24T09:27:25;36.90;46.90
23618;DHT22;18207;32.078;34.818;2023-07-24T09:30:00;36.90;47.00
23618;DHT22;18207;32.078;34.818;2023-07-24T09:32:30;36.90;47.10
23618;DHT22;18207;32.078;34.818;2023-07-24T09:35:02;36.90;47.00
23618;DHT22;18207;32.078;34.818;2023-07-24T09:37:34;37.00;47.00
23618;DHT22;18207;32.078;34.818;2023-07-24T09:40:04;37.00;46.90
23618;DHT22;18207;32.078;34.818;2023-07-24T09:42:37;37.00;46.90
23618;DHT22;18207;32.078;34.818;2023-07-24T09:45:30;36.90;46.80
23618;DHT22;18207;32.078;34.818;2023-07-24T09:48:03;37.00;47.10
23618;DHT22;18207;32.078;34.818;2023-07-24T09:50:59;36.90;47.10
23618;DHT22;18207;32.078;34.818;2023-07-24T09:53:34;37.00;46.90
23618;DHT22;18207;32.078;34.818;2023-07-24T09:56:09;37.00;46.50
23618;DHT22;18207;32.078;34.818;2023-07-24T09:58:40;37.00;46.50
23618;DHT22;18207;32.078;34.818;2023-07-24T10:01:13;37.00;46.60
23618;DHT22;18207;32.078;34.818;2023-07-24T10:03:47;37.00;46.50
23618;DHT22;18207;32.078;34.818;2023-07-24T10:06:19;36.90;46.40
23618;DHT22;18207;32.078;34.818;2023-07-24T10:08:51;37.00;46.60
23618;DHT22;18207;32.078;34.818;2023-07-24T10:11:23;36.90;46.50
23618;DHT22;18207;32.078;34.818;2023-07-24T10:13:56;36.90;46.30
23618;DHT22;18207;32.078;34.818;2023-07-24T10:16:29;36.90;46.20
23618;DHT22;18207;32.078;34.818;2023-07-24T10:19:00;36.90;46.30
23618;DHT22;18207;32.078;34.818;2023-07-24T10:21:30;36.90;46.30
23618;DHT22;18207;32.078;34.818;2023-07-24T10:24:01;36.90;46.40
23618;DHT22;18207;32.078;34.818;2023-07-24T10:26:31;36.90;46.30
23618;DHT22;18207;32.078;34.818;2023-07-24T10:29:04;36.90;46.40
23618;DHT22;18207;32.078;34.818;2023-07-24T10:31:36;36.90;46.50
23618;DHT22;18207;32.078;34.818;2023-07-24T10:34:07;36.90;46.60
23618;DHT22;18207;32.078;34.818;2023-07-24T10:36:37;37.00;46.60
23618;DHT22;18207;32.078;34.818;2023-07-24T10:39:14;36.90;46.50
23618;DHT22;18207;32.078;34.818;2023-07-24T10:42:05;37.00;46.40
23618;DHT22;18207;32.078;34.818;2023-07-24T10:44:37;37.00;46.30
23618;DHT22;18207;32.078;34.818;2023-07-24T10:47:09;37.00;45.90
23618;DHT22;18207;32.078;34.818;2023-07-24T10:49:48;37.00;45.70
23618;DHT22;18207;32.078;34.818;2023-07-24T10:52:27;37.00;45.70
23618;DHT22;18207;32.078;34.818;2023-07-24T10:55:00;37.00;45.80
23618;DHT22;18207;32.078;34.818;2023-07-24T10:57:31;37.00;45.60
23618;DHT22;18207;32.078;34.818;2023-07-24T11:00:01;37.00;45.60
23618;DHT22;18207;32.078;34.818;2023-07-24T11:02:33;37.00;45.60
23618;DHT22;18207;32.078;34.818;2023-07-24T11:05:05;37.00;45.50
23618;DHT22;18207;32.078;34.818;2023-07-24T11:07:37;37.00;45.50
23618;DHT22;18207;32.078;34.818;2023-07-24T11:10:15;37.00;45.60
23618;DHT22;18207;32.078;34.818;2023-07-24T11:12:47;37.10;45.50
23618;DHT22;18207;32.078;34.818;2023-07-24T11:15:24;37.10;45.60
23618;DHT22;18207;32.078;34.818;2023-07-24T11:17:57;37.10;45.50
23618;DHT22;18207;32.078;34.818;2023-07-24T11:20:30;37.10;45.50
23618;DHT22;18207;32.078;34.818;2023-07-24T11:23:00;37.10;45.50
23618;DHT22;18207;32.078;34.818;2023-07-24T11:25:30;37.10;45.40
23618;DHT22;18207;32.078;34.818;2023-07-24T11:28:02;37.10;45.20
23618;DHT22;18207;32.078;34.818;2023-07-24T11:30:35;37.10;45.00
23618;DHT22;18207;32.078;34.818;2023-07-24T11:33:09;37.00;44.70
23618;DHT22;18207;32.078;34.818;2023-07-24T11:35:43;37.00;44.70
23618;DHT22;18207;32.078;34.818;2023-07-24T11:38:15;37.00;44.50
23618;DHT22;18207;32.078;34.818;2023-07-24T11:40:47;37.00;44.60
23618;DHT22;18207;32.078;34.818;2023-07-24T11:43:18;37.00;44.60
23618;DHT22;18207;32.078;34.818;2023-07-24T11:45:51;37.00;44.70
23618;DHT22;18207;32.078;34.818;2023-07-24T11:48:25;36.90;44.70
23618;DHT22;18207;32.078;34.818;2023-07-24T11:50:57;36.90;44.70
23618;DHT22;18207;32.078;34.818;2023-07-24T11:53:28;36.90;44.70
23618;DHT22;18207;32.078;34.818;2023-07-24T11:56:00;36.90;44.40
23618;DHT22;18207;32.078;34.818;2023-07-24T11:58:30;36.90;44.30
23618;DHT22;18207;32.078;34.818;2023-07-24T12:01:01;36.90;44.10
23618;DHT22;18207;32.078;34.818;2023-07-24T12:03:32;36.90;44.00
23618;DHT22;18207;32.078;34.818;2023-07-24T12:06:03;36.90;43.90
23618;DHT22;18207;32.078;34.818;2023-07-24T12:08:35;36.90;43.90
23618;DHT22;18207;32.078;34.818;2023-07-24T12:11:16;36.90;43.80
23618;DHT22;18207;32.078;34.818;2023-07-24T12:13:46;36.90;43.50
23618;DHT22;18207;32.078;34.818;2023-07-24T12:16:17;36.90;43.60
23618;DHT22;18207;32.078;34.818;2023-07-24T12:18:50;36.90;43.60
23618;DHT22;18207;32.078;34.818;2023-07-24T12:21:20;36.90;43.40
23618;DHT22;18207;32.078;34.818;2023-07-24T12:23:50;36.90;43.30
23618;DHT22;18207;32.078;34.818;2023-07-24T12:26:21;36.80;43.20
23618;DHT22;18207;32.078;34.818;2023-07-24T12:28:53;36.90;43.30
23618;DHT22;18207;32.078;34.818;2023-07-24T12:31:24;36.90;43.30
23618;DHT22;18207;32.078;34.818;2023-07-24T12:33:57;36.80;43.00
23618;DHT22;18207;32.078;34.818;2023-07-24T12:36:26;36.80;43.00
23618;DHT22;18207;32.078;34.818;2023-07-24T12:38:57;36.80;43.00
23618;DHT22;18207;32.078;34.818;2023-07-24T12:41:27;36.80;42.90
23618;DHT22;18207;32.078;34.818;2023-07-24T12:43:58;36.80;42.80
23618;DHT22;18207;32.078;34.818;2023-07-24T12:46:29;36.80;42.70
23618;DHT22;18207;32.078;34.818;2023-07-24T12:49:02;36.80;42.60
23618;DHT22;18207;32.078;34.818;2023-07-24T12:51:32;36.80;42.70
23618;DHT22;18207;32.078;34.818;2023-07-24T12:54:03;36.80;42.70
23618;DHT22;18207;32.078;34.818;2023-07-24T12:56:53;36.80;42.70
23618;DHT22;18207;32.078;34.818;2023-07-24T12:59:23;36.80;42.80
23618;DHT22;18207;32.078;34.818;2023-07-24T13:01:53;36.80;42.70
23618;DHT22;18207;32.078;34.818;2023-07-24T13:04:25;36.80;42.70
23618;DHT22;18207;32.078;34.818;2023-07-24T13:06:55;36.70;42.70
23618;DHT22;18207;32.078;34.818;2023-07-24T13:09:30;36.70;42.70
23618;DHT22;18207;32.078;34.818;2023-07-24T13:12:00;36.70;42.60
23618;DHT22;18207;32.078;34.818;2023-07-24T13:14:31;36.70;42.50
23618;DHT22;18207;32.078;34.818;2023-07-24T13:17:01;36.70;42.30
23618;DHT22;18207;32.078;34.818;2023-07-24T13:19:34;36.60;42.00
23618;DHT22;18207;32.078;34.818;2023-07-24T13:22:04;36.60;41.90
23618;DHT22;18207;32.078;34.818;2023-07-24T13:24:35;36.60;42.00
23618;DHT22;18207;32.078;34.818;2023-07-24T13:27:06;36.50;42.00
23618;DHT22;18207;32.078;34.818;2023-07-24T13:29:36;36.60;42.10
23618;DHT22;18207;32.078;34.818;2023-07-24T13:32:07;36.50;42.10
23618;DHT22;18207;32.078;34.818;2023-07-24T13:34:39;36.50;42.10
23618;DHT22;18207;32.078;34.818;2023-07-24T13:37:10;36.50;42.10
23618;DHT22;18207;32.078;34.818;2023-07-24T13:39:40;36.50;42.10
23618;DHT22;18207;32.078;34.818;2023-07-24T13:42:11;36.50;41.90
23618;DHT22;18207;32.078;34.818;2023-07-24T13:44:40;36.50;42.00
23618;DHT22;18207;32.078;34.818;2023-07-24T13:47:10;36.50;42.10
23618;DHT22;18207;32.078;34.818;2023-07-24T13:49:42;36.50;42.20
23618;DHT22;18207;32.078;34.818;2023-07-24T13:52:12;36.40;42.10
23618;DHT22;18207;32.078;34.818;2023-07-24T13:54:42;36.50;42.10
23618;DHT22;18207;32.078;34.818;2023-07-24T13:57:13;36.40;41.90
23618;DHT22;18207;32.078;34.818;2023-07-24T13:59:43;36.40;42.10
23618;DHT22;18207;32.078;34.818;2023-07-24T14:02:13;36.40;41.80
23618;DHT22;18207;32.078;34.818;2023-07-24T14:04:45;36.30;41.50
23618;DHT22;18207;32.078;34.818;2023-07-24T14:07:16;36.30;41.50
23618;DHT22;18207;32.078;34.818;2023-07-24T14:09:46;36.30;41.70
23618;DHT22;18207;32.078;34.818;2023-07-24T14:12:17;36.20;41.70
23618;DHT22;18207;32.078;34.818;2023-07-24T14:14:47;36.20;41.80
23618;DHT22;18207;32.078;34.818;2023-07-24T14:17:17;36.20;41.90
23618;DHT22;18207;32.078;34.818;2023-07-24T14:19:49;36.20;42.00
23618;DHT22;18207;32.078;34.818;2023-07-24T14:22:20;36.20;42.00
23618;DHT22;18207;32.078;34.818;2023-07-24T14:24:53;36.20;41.80
23618;DHT22;18207;32.078;34.818;2023-07-24T14:27:23;36.10;41.90
23618;DHT22;18207;32.078;34.818;2023-07-24T14:29:54;36.10;41.80
23618;DHT22;18207;32.078;34.818;2023-07-24T14:32:24;36.10;41.90
23618;DHT22;18207;32.078;34.818;2023-07-24T14:34:56;36.00;41.80
23618;DHT22;18207;32.078;34.818;2023-07-24T14:37:28;36.10;41.70
23618;DHT22;18207;32.078;34.818;2023-07-24T14:39:58;36.00;41.60
23618;DHT22;18207;32.078;34.818;2023-07-24T14:42:28;36.00;41.70
23618;DHT22;18207;32.078;34.818;2023-07-24T14:44:59;36.00;41.60
23618;DHT22;18207;32.078;34.818;2023-07-24T14:47:32;36.00;41.70
23618;DHT22;18207;32.078;34.818;2023-07-24T14:50:05;35.90;41.70
23618;DHT22;18207;32.078;34.818;2023-07-24T14:52:36;35.90;41.90
23618;DHT22;18207;32.078;34.818;2023-07-24T14:55:07;35.90;42.00
23618;DHT22;18207;32.078;34.818;2023-07-24T14:57:38;35.90;42.10
23618;DHT22;18207;32.078;34.818;2023-07-24T15:00:09;35.90;42.10
23618;DHT22;18207;32.078;34.818;2023-07-24T15:02:40;35.90;42.20
23618;DHT22;18207;32.078;34.818;2023-07-24T15:05:12;35.90;42.40
23618;DHT22;18207;32.078;34.818;2023-07-24T15:07:43;35.80;42.50
23618;DHT22;18207;32.078;34.818;2023-07-24T15:10:12;35.80;42.40
23618;DHT22;18207;32.078;34.818;2023-07-24T15:12:43;35.80;42.50
23618;DHT22;18207;32.078;34.818;2023-07-24T15:15:14;35.80;42.40
23618;DHT22;18207;32.078;34.818;2023-07-24T15:17:44;35.80;42.30
23618;DHT22;18207;32.078;34.818;2023-07-24T15:20:15;35.80;42.30
23618;DHT22;18207;32.078;34.818;2023-07-24T15:22:46;35.80;42.20
23618;DHT22;18207;32.078;34.818;2023-07-24T15:25:16;35.70;42.10
23618;DHT22;18207;32.078;34.818;2023-07-24T15:27:46;35.70;42.10
23618;DHT22;18207;32.078;34.818;2023-07-24T15:30:17;35.70;41.90
23618;DHT22;18207;32.078;34.818;2023-07-24T15:32:47;35.70;41.90
23618;DHT22;18207;32.078;34.818;2023-07-24T15:35:20;35.70;41.70
23618;DHT22;18207;32.078;34.818;2023-07-24T15:37:51;35.70;41.50
23618;DHT22;18207;32.078;34.818;2023-07-24T15:40:21;35.60;41.40